sensor_id;sensor_type;location;lat;lon;timestamp;temperature;humidity
1948;DHT22;974;52.400;9.818;2023-05-10T00:00:50;14.40;69.30
1948;DHT22;974;52.400;9.818;2023-05-10T00:03:16;14.40;69.40
1948;DHT22;974;52.400;9.818;2023-05-10T00:05:41;14.40;69.50
1948;DHT22;974;52.400;9.818;2023-05-10T00:08:07;14.40;69.70
1948;DHT22;974;52.400;9.818;2023-05-10T00:10:32;14.30;70.20
1948;DHT22;974;52.400;9.818;2023-05-10T00:12:58;14.20;70.40
1948;DHT22;974;52.400;9.818;2023-05-10T00:15:24;14.10;70.90
1948;DHT22;974;52.400;9.818;2023-05-10T00:17:49;14.10;71.30
1948;DHT22;974;52.400;9.818;2023-05-10T00:20:15;14.00;71.30
1948;DHT22;974;52.400;9.818;2023-05-10T00:22:40;14.00;71.90
1948;DHT22;974;52.400;9.818;2023-05-10T00:25:07;14.00;72.20
1948;DHT22;974;52.400;9.818;2023-05-10T00:27:32;14.00;73.10
1948;DHT22;974;52.400;9.818;2023-05-10T00:29:58;13.90;72.80
1948;DHT22;974;52.400;9.818;2023-05-10T00:32:23;13.90;73.10
1948;DHT22;974;52.400;9.818;2023-05-10T00:34:49;13.80;73.20
1948;DHT22;974;52.400;9.818;2023-05-10T00:37:14;13.90;73.50
1948;DHT22;974;52.400;9.818;2023-05-10T00:39:40;13.80;73.40
1948;DHT22;974;52.400;9.818;2023-05-10T00:42:05;13.90;73.70
1948;DHT22;974;52.400;9.818;2023-05-10T00:44:30;13.90;73.80
1948;DHT22;974;52.400;9.818;2023-05-10T00:46:57;13.80;74.00
1948;DHT22;974;52.400;9.818;2023-05-10T00:49:23;13.80;74.30
1948;DHT22;974;52.400;9.818;2023-05-10T00:51:48;13.80;74.60
1948;DHT22;974;52.400;9.818;2023-05-10T00:54:15;13.80;74.90
1948;DHT22;974;52.400;9.818;2023-05-10T00:56:41;13.80;75.10
1948;DHT22;974;52.400;9.818;2023-05-10T00:59:08;13.70;75.40
1948;DHT22;974;52.400;9.818;2023-05-10T01:01:35;13.70;75.50
1948;DHT22;974;52.400;9.818;2023-05-10T01:04:01;13.70;76.10
1948;DHT22;974;52.400;9.818;2023-05-10T01:06:27;13.70;76.20
1948;DHT22;974;52.400;9.818;2023-05-10T01:08:52;13.70;76.20
1948;DHT22;974;52.400;9.818;2023-05-10T01:11:18;13.70;76.30
1948;DHT22;974;52.400;9.818;2023-05-10T01:13:46;13.70;76.40
1948;DHT22;974;52.400;9.818;2023-05-10T01:16:13;13.70;76.80
1948;DHT22;974;52.400;9.818;2023-05-10T01:18:40;13.70;76.90
1948;DHT22;974;52.400;9.818;2023-05-10T01:24:24;13.50;77.50
1948;DHT22;974;52.400;9.818;2023-05-10T01:30:28;13.40;78.40
1948;DHT22;974;52.400;9.818;2023-05-10T01:33:16;13.40;79.00
1948;DHT22;974;52.400;9.818;2023-05-10T01:36:13;13.30;79.50
1948;DHT22;974;52.400;9.818;2023-05-10T01:38:50;13.20;79.80
1948;DHT22;974;52.400;9.818;2023-05-10T01:41:21;13.20;80.50
1948;DHT22;974;52.400;9.818;2023-05-10T01:44:16;13.10;80.80
1948;DHT22;974;52.400;9.818;2023-05-10T01:46:43;13.10;81.20
1948;DHT22;974;52.400;9.818;2023-05-10T01:49:20;13.10;81.80
1948;DHT22;974;52.400;9.818;2023-05-10T01:51:50;13.00;82.10
1948;DHT22;974;52.400;9.818;2023-05-10T01:54:19;13.00;82.40
1948;DHT22;974;52.400;9.818;2023-05-10T01:56:47;12.90;83.00
1948;DHT22;974;52.400;9.818;2023-05-10T01:59:18;12.90;83.40
1948;DHT22;974;52.400;9.818;2023-05-10T02:01:45;12.80;84.00
1948;DHT22;974;52.400;9.818;2023-05-10T02:04:15;12.80;84.50
1948;DHT22;974;52.400;9.818;2023-05-10T02:06:42;12.90;84.60
1948;DHT22;974;52.400;9.818;2023-05-10T02:09:10;12.80;85.10
1948;DHT22;974;52.400;9.818;2023-05-10T02:11:38;12.80;85.50
1948;DHT22;974;52.400;9.818;2023-05-10T02:14:07;12.80;85.70
1948;DHT22;974;52.400;9.818;2023-05-10T02:16:35;12.80;86.10
1948;DHT22;974;52.400;9.818;2023-05-10T02:19:02;12.80;86.90
1948;DHT22;974;52.400;9.818;2023-05-10T02:21:28;12.70;87.10
1948;DHT22;974;52.400;9.818;2023-05-10T02:23:56;12.70;87.50
1948;DHT22;974;52.400;9.818;2023-05-10T02:26:23;12.70;87.70
1948;DHT22;974;52.400;9.818;2023-05-10T02:28:50;12.60;87.70
1948;DHT22;974;52.400;9.818;2023-05-10T02:31:17;12.60;88.30
1948;DHT22;974;52.400;9.818;2023-05-10T02:33:44;12.60;88.30
1948;DHT22;974;52.400;9.818;2023-05-10T02:36:12;12.70;88.70
1948;DHT22;974;52.400;9.818;2023-05-10T02:38:38;12.70;88.90
1948;DHT22;974;52.400;9.818;2023-05-10T02:41:05;12.60;89.40
1948;DHT22;974;52.400;9.818;2023-05-10T02:43:33;12.60;89.60
1948;DHT22;974;52.400;9.818;2023-05-10T02:45:59;12.70;90.00
1948;DHT22;974;52.400;9.818;2023-05-10T02:48:24;12.70;90.00
1948;DHT22;974;52.400;9.818;2023-05-10T02:50:52;12.70;90.10
1948;DHT22;974;52.400;9.818;2023-05-10T02:53:22;12.70;90.20
1948;DHT22;974;52.400;9.818;2023-05-10T02:55:51;12.70;90.30
1948;DHT22;974;52.400;9.818;2023-05-10T02:58:18;12.50;90.40
1948;DHT22;974;52.400;9.818;2023-05-10T03:00:45;12.60;90.70
1948;DHT22;974;52.400;9.818;2023-05-10T03:03:11;12.60;90.80
1948;DHT22;974;52.400;9.818;2023-05-10T03:05:36;12.60;91.00
1948;DHT22;974;52.400;9.818;2023-05-10T03:08:02;12.70;91.10
1948;DHT22;974;52.400;9.818;2023-05-10T03:10:30;12.70;91.20
1948;DHT22;974;52.400;9.818;2023-05-10T03:13:30;12.70;91.30
1948;DHT22;974;52.400;9.818;2023-05-10T03:15:59;12.60;91.40
1948;DHT22;974;52.400;9.818;2023-05-10T03:21:28;12.50;91.70
1948;DHT22;974;52.400;9.818;2023-05-10T03:24:01;12.70;92.00
1948;DHT22;974;52.400;9.818;2023-05-10T03:26:30;12.60;92.10
1948;DHT22;974;52.400;9.818;2023-05-10T03:28:57;12.60;92.30
1948;DHT22;974;52.400;9.818;2023-05-10T03:31:24;12.60;92.60
1948;DHT22;974;52.400;9.818;2023-05-10T03:33:51;12.60;93.10
1948;DHT22;974;52.400;9.818;2023-05-10T03:36:17;12.60;93.70
1948;DHT22;974;52.400;9.818;2023-05-10T03:38:42;12.50;94.50
1948;DHT22;974;52.400;9.818;2023-05-10T03:41:08;12.50;95.30
1948;DHT22;974;52.400;9.818;2023-05-10T03:43:34;12.60;95.60
1948;DHT22;974;52.400;9.818;2023-05-10T03:46:04;12.50;95.90
1948;DHT22;974;52.400;9.818;2023-05-10T03:48:30;12.60;96.40
1948;DHT22;974;52.400;9.818;2023-05-10T03:50:55;12.60;97.00
1948;DHT22;974;52.400;9.818;2023-05-10T03:53:21;12.60;97.90
1948;DHT22;974;52.400;9.818;2023-05-10T03:55:48;12.50;99.10
1948;DHT22;974;52.400;9.818;2023-05-10T03:58:13;12.50;99.40
1948;DHT22;974;52.400;9.818;2023-05-10T04:00:38;12.50;99.90
1948;DHT22;974;52.400;9.818;2023-05-10T04:03:09;12.40;99.90
1948;DHT22;974;52.400;9.818;2023-05-10T04:05:35;12.40;99.90
1948;DHT22;974;52.400;9.818;2023-05-10T04:08:01;12.40;99.90
1948;DHT22;974;52.400;9.818;2023-05-10T04:10:26;12.30;99.90
1948;DHT22;974;52.400;9.818;2023-05-10T04:12:52;12.30;99.90
1948;DHT22;974;52.400;9.818;2023-05-10T04:15:17;12.30;99.90
1948;DHT22;974;52.400;9.818;2023-05-10T04:17:43;12.30;99.90
1948;DHT22;974;52.400;9.818;2023-05-10T04:20:09;12.40;99.90
1948;DHT22;974;52.400;9.818;2023-05-10T04:22:34;12.50;99.90
1948;DHT22;974;52.400;9.818;2023-05-10T04:25:00;12.40;99.90
1948;DHT22;974;52.400;9.818;2023-05-10T04:27:25;12.50;99.90
1948;DHT22;974;52.400;9.818;2023-05-10T04:29:51;12.50;99.90
1948;DHT22;974;52.400;9.818;2023-05-10T04:32:17;12.40;99.90
1948;DHT22;974;52.400;9.818;2023-05-10T04:34:43;12.40;99.90
1948;DHT22;974;52.400;9.818;2023-05-10T04:37:08;12.40;99.90
1948;DHT22;974;52.400;9.818;2023-05-10T04:39:34;12.40;99.90
1948;DHT22;974;52.400;9.818;2023-05-10T04:42:01;12.40;99.90
1948;DHT22;974;52.400;9.818;2023-05-10T04:44:28;12.30;99.90
1948;DHT22;974;52.400;9.818;2023-05-10T04:46:53;12.30;99.90
1948;DHT22;974;52.400;9.818;2023-05-10T04:49:19;12.40;99.90
1948;DHT22;974;52.400;9.818;2023-05-10T04:51:45;12.40;99.90
1948;DHT22;974;52.400;9.818;2023-05-10T04:54:10;12.40;99.90
1948;DHT22;974;52.400;9.818;2023-05-10T04:56:36;12.40;99.90
1948;DHT22;974;52.400;9.818;2023-05-10T04:59:01;12.40;99.90
1948;DHT22;974;52.400;9.818;2023-05-10T05:01:26;12.40;99.90
1948;DHT22;974;52.400;9.818;2023-05-10T05:03:52;12.40;99.90
1948;DHT22;974;52.400;9.818;2023-05-10T05:06:18;12.40;99.90
1948;DHT22;974;52.400;9.818;2023-05-10T05:08:43;12.50;99.90
1948;DHT22;974;52.400;9.818;2023-05-10T05:11:09;12.40;99.90
1948;DHT22;974;52.400;9.818;2023-05-10T05:13:34;12.50;99.90
1948;DHT22;974;52.400;9.818;2023-05-10T05:16:01;12.60;99.90
1948;DHT22;974;52.400;9.818;2023-05-10T05:18:28;12.60;99.90
1948;DHT22;974;52.400;9.818;2023-05-10T05:20:53;12.50;99.90
1948;DHT22;974;52.400;9.818;2023-05-10T05:23:19;12.40;99.90
1948;DHT22;974;52.400;9.818;2023-05-10T05:25:46;12.50;99.90
1948;DHT22;974;52.400;9.818;2023-05-10T05:28:12;12.50;99.90
1948;DHT22;974;52.400;9.818;2023-05-10T05:30:37;12.50;99.90
1948;DHT22;974;52.400;9.818;2023-05-10T05:33:03;12.40;99.90
1948;DHT22;974;52.400;9.818;2023-05-10T05:35:28;12.50;99.90
1948;DHT22;974;52.400;9.818;2023-05-10T05:37:54;12.50;99.90
1948;DHT22;974;52.400;9.818;2023-05-10T05:40:19;12.60;99.90
1948;DHT22;974;52.400;9.818;2023-05-10T05:42:45;12.50;99.90
1948;DHT22;974;52.400;9.818;2023-05-10T05:45:11;12.60;99.90
1948;DHT22;974;52.400;9.818;2023-05-10T05:47:39;12.60;99.90
1948;DHT22;974;52.400;9.818;2023-05-10T05:50:05;12.60;99.90
1948;DHT22;974;52.400;9.818;2023-05-10T05:52:30;12.70;99.90
1948;DHT22;974;52.400;9.818;2023-05-10T05:54:56;12.70;99.90
1948;DHT22;974;52.400;9.818;2023-05-10T05:57:21;12.70;99.90
1948;DHT22;974;52.400;9.818;2023-05-10T05:59:48;12.60;99.90
1948;DHT22;974;52.400;9.818;2023-05-10T06:02:13;12.60;99.90
1948;DHT22;974;52.400;9.818;2023-05-10T06:04:39;12.60;99.90
1948;DHT22;974;52.400;9.818;2023-05-10T06:07:05;12.60;99.90
1948;DHT22;974;52.400;9.818;2023-05-10T06:09:31;12.50;99.90
1948;DHT22;974;52.400;9.818;2023-05-10T06:11:56;12.60;99.90
1948;DHT22;974;52.400;9.818;2023-05-10T06:14:23;12.70;99.90
1948;DHT22;974;52.400;9.818;2023-05-10T06:16:48;12.70;99.90
1948;DHT22;974;52.400;9.818;2023-05-10T06:19:14;12.80;99.90
1948;DHT22;974;52.400;9.818;2023-05-10T06:21:39;12.90;99.90
1948;DHT22;974;52.400;9.818;2023-05-10T06:24:05;12.90;99.90
1948;DHT22;974;52.400;9.818;2023-05-10T06:26:32;12.90;99.90
1948;DHT22;974;52.400;9.818;2023-05-10T06:28:57;12.90;99.90
1948;DHT22;974;52.400;9.818;2023-05-10T06:31:23;12.90;99.90
1948;DHT22;974;52.400;9.818;2023-05-10T06:33:48;12.90;99.90
1948;DHT22;974;52.400;9.818;2023-05-10T06:36:14;12.80;99.90
1948;DHT22;974;52.400;9.818;2023-05-10T06:38:39;12.90;99.90
1948;DHT22;974;52.400;9.818;2023-05-10T06:41:05;12.90;99.90
1948;DHT22;974;52.400;9.818;2023-05-10T06:43:31;12.90;99.90
1948;DHT22;974;52.400;9.818;2023-05-10T06:45:57;12.90;99.90
1948;DHT22;974;52.400;9.818;2023-05-10T06:48:22;12.90;99.90
1948;DHT22;974;52.400;9.818;2023-05-10T06:50:48;12.90;99.90
1948;DHT22;974;52.400;9.818;2023-05-10T06:53:13;13.00;99.90
1948;DHT22;974;52.400;9.818;2023-05-10T06:55:39;13.00;99.90
1948;DHT22;974;52.400;9.818;2023-05-10T06:58:04;13.10;99.90
1948;DHT22;974;52.400;9.818;2023-05-10T07:00:30;13.00;99.90
1948;DHT22;974;52.400;9.818;2023-05-10T07:02:55;13.10;99.90
1948;DHT22;974;52.400;9.818;2023-05-10T07:05:21;13.00;99.90
1948;DHT22;974;52.400;9.818;2023-05-10T07:07:47;13.10;99.90
1948;DHT22;974;52.400;9.818;2023-05-10T07:10:12;13.10;99.90
1948;DHT22;974;52.400;9.818;2023-05-10T07:12:38;13.20;99.90
1948;DHT22;974;52.400;9.818;2023-05-10T07:15:04;13.20;99.90
1948;DHT22;974;52.400;9.818;2023-05-10T07:17:30;13.20;99.90
1948;DHT22;974;52.400;9.818;2023-05-10T07:19:55;13.20;99.90
1948;DHT22;974;52.400;9.818;2023-05-10T07:22:21;13.20;99.90
1948;DHT22;974;52.400;9.818;2023-05-10T07:24:46;13.30;99.90
1948;DHT22;974;52.400;9.818;2023-05-10T07:27:12;13.30;99.90
1948;DHT22;974;52.400;9.818;2023-05-10T07:29:38;13.40;99.90
1948;DHT22;974;52.400;9.818;2023-05-10T07:32:04;13.40;99.90
1948;DHT22;974;52.400;9.818;2023-05-10T07:34:30;13.50;99.90
1948;DHT22;974;52.400;9.818;2023-05-10T07:36:58;13.50;99.90
1948;DHT22;974;52.400;9.818;2023-05-10T07:39:25;13.50;99.90
1948;DHT22;974;52.400;9.818;2023-05-10T07:41:51;13.50;99.90
1948;DHT22;974;52.400;9.818;2023-05-10T07:44:16;13.50;99.90
1948;DHT22;974;52.400;9.818;2023-05-10T07:46:44;13.50;99.90
1948;DHT22;974;52.400;9.818;2023-05-10T07:49:09;13.50;99.90
1948;DHT22;974;52.400;9.818;2023-05-10T07:51:35;13.60;99.90
1948;DHT22;974;52.400;9.818;2023-05-10T07:54:00;13.60;99.90
1948;DHT22;974;52.400;9.818;2023-05-10T07:56:29;13.60;99.90
1948;DHT22;974;52.400;9.818;2023-05-10T07:59:02;13.60;99.90
1948;DHT22;974;52.400;9.818;2023-05-10T08:01:33;13.70;99.90
1948;DHT22;974;52.400;9.818;2023-05-10T08:03:58;13.70;99.90
1948;DHT22;974;52.400;9.818;2023-05-10T08:06:24;13.70;99.90
1948;DHT22;974;52.400;9.818;2023-05-10T08:08:51;13.60;99.90
1948;DHT22;974;52.400;9.818;2023-05-10T08:11:22;13.40;99.90
1948;DHT22;974;52.400;9.818;2023-05-10T08:13:48;13.50;99.90
1948;DHT22;974;52.400;9.818;2023-05-10T08:16:15;13.60;99.90
1948;DHT22;974;52.400;9.818;2023-05-10T08:18:40;13.40;99.90
1948;DHT22;974;52.400;9.818;2023-05-10T08:21:06;13.50;99.90
1948;DHT22;974;52.400;9.818;2023-05-10T08:23:32;13.50;99.90
1948;DHT22;974;52.400;9.818;2023-05-10T08:25:57;13.50;99.90
1948;DHT22;974;52.400;9.818;2023-05-10T08:28:23;13.30;99.90
1948;DHT22;974;52.400;9.818;2023-05-10T08:30:50;13.40;99.90
1948;DHT22;974;52.400;9.818;2023-05-10T08:33:17;13.40;99.90
1948;DHT22;974;52.400;9.818;2023-05-10T08:35:42;13.40;99.90
1948;DHT22;974;52.400;9.818;2023-05-10T08:38:08;13.40;99.90
1948;DHT22;974;52.400;9.818;2023-05-10T08:40:33;13.50;99.90
1948;DHT22;974;52.400;9.818;2023-05-10T08:43:09;13.50;99.90
1948;DHT22;974;52.400;9.818;2023-05-10T08:45:43;13.70;99.90
1948;DHT22;974;52.400;9.818;2023-05-10T08:48:11;13.70;99.90
1948;DHT22;974;52.400;9.818;2023-05-10T08:50:38;13.70;99.90
1948;DHT22;974;52.400;9.818;2023-05-10T08:53:09;13.80;99.90
1948;DHT22;974;52.400;9.818;2023-05-10T08:55:35;13.80;99.90
1948;DHT22;974;52.400;9.818;2023-05-10T08:58:07;13.80;99.90
1948;DHT22;974;52.400;9.818;2023-05-10T09:00:33;13.80;99.90
1948;DHT22;974;52.400;9.818;2023-05-10T09:03:00;13.90;99.90
1948;DHT22;974;52.400;9.818;2023-05-10T09:05:27;13.90;99.90
1948;DHT22;974;52.400;9.818;2023-05-10T09:07:52;13.90;99.90
1948;DHT22;974;52.400;9.818;2023-05-10T09:10:19;14.10;99.90
1948;DHT22;974;52.400;9.818;2023-05-10T09:12:45;14.00;99.90
1948;DHT22;974;52.400;9.818;2023-05-10T09:15:11;13.90;99.90
1948;DHT22;974;52.400;9.818;2023-05-10T09:17:38;13.80;99.90
1948;DHT22;974;52.400;9.818;2023-05-10T09:20:04;13.90;99.90
1948;DHT22;974;52.400;9.818;2023-05-10T09:22:30;13.60;99.90
1948;DHT22;974;52.400;9.818;2023-05-10T09:25:11;13.50;99.90
1948;DHT22;974;52.400;9.818;2023-05-10T09:27:41;13.30;99.90
1948;DHT22;974;52.400;9.818;2023-05-10T09:30:07;13.40;99.90
1948;DHT22;974;52.400;9.818;2023-05-10T09:32:37;13.40;99.90
1948;DHT22;974;52.400;9.818;2023-05-10T09:35:13;13.30;99.90
1948;DHT22;974;52.400;9.818;2023-05-10T09:37:39;13.50;99.90
1948;DHT22;974;52.400;9.818;2023-05-10T09:40:21;13.50;99.90
1948;DHT22;974;52.400;9.818;2023-05-10T09:42:58;13.50;99.90
1948;DHT22;974;52.400;9.818;2023-05-10T09:45:25;13.50;99.90
1948;DHT22;974;52.400;9.818;2023-05-10T09:47:51;13.70;99.90
1948;DHT22;974;52.400;9.818;2023-05-10T09:50:17;13.80;99.90
1948;DHT22;974;52.400;9.818;2023-05-10T09:52:53;13.90;99.90
1948;DHT22;974;52.400;9.818;2023-05-10T09:55:24;14.00;99.90
1948;DHT22;974;52.400;9.818;2023-05-10T09:57:58;13.90;99.90
1948;DHT22;974;52.400;9.818;2023-05-10T10:00:24;13.90;99.90
1948;DHT22;974;52.400;9.818;2023-05-10T10:02:57;14.00;99.90
1948;DHT22;974;52.400;9.818;2023-05-10T10:05:33;13.90;99.90
1948;DHT22;974;52.400;9.818;2023-05-10T10:08:00;14.10;99.90
1948;DHT22;974;52.400;9.818;2023-05-10T10:10:26;14.20;99.90
1948;DHT22;974;52.400;9.818;2023-05-10T10:12:52;14.10;99.90
1948;DHT22;974;52.400;9.818;2023-05-10T10:15:19;14.10;99.90
1948;DHT22;974;52.400;9.818;2023-05-10T10:17:45;14.20;99.90
1948;DHT22;974;52.400;9.818;2023-05-10T10:20:11;14.30;99.90
1948;DHT22;974;52.400;9.818;2023-05-10T10:22:37;14.30;99.90
1948;DHT22;974;52.400;9.818;2023-05-10T10:25:04;14.30;99.90
1948;DHT22;974;52.400;9.818;2023-05-10T10:30:48;14.40;99.90
1948;DHT22;974;52.400;9.818;2023-05-10T10:33:36;14.50;99.90
1948;DHT22;974;52.400;9.818;2023-05-10T10:36:04;14.50;99.90
1948;DHT22;974;52.400;9.818;2023-05-10T10:38:57;14.60;99.90
1948;DHT22;974;52.400;9.818;2023-05-10T10:49:42;14.70;99.90
1948;DHT22;974;52.400;9.818;2023-05-10T10:57:53;15.20;99.90
1948;DHT22;974;52.400;9.818;2023-05-10T11:00:39;15.20;99.90
1948;DHT22;974;52.400;9.818;2023-05-10T11:03:10;15.50;99.90
1948;DHT22;974;52.400;9.818;2023-05-10T11:05:48;15.60;99.90
1948;DHT22;974;52.400;9.818;2023-05-10T11:08:16;15.60;99.90
1948;DHT22;974;52.400;9.818;2023-05-10T11:13:46;15.60;99.90
1948;DHT22;974;52.400;9.818;2023-05-10T11:16:23;15.60;99.90
1948;DHT22;974;52.400;9.818;2023-05-10T11:18:59;15.60;99.90
1948;DHT22;974;52.400;9.818;2023-05-10T11:21:26;15.90;99.90
1948;DHT22;974;52.400;9.818;2023-05-10T11:23:53;16.10;99.90
1948;DHT22;974;52.400;9.818;2023-05-10T11:26:30;16.00;99.90
1948;DHT22;974;52.400;9.818;2023-05-10T11:28:56;16.10;99.90
1948;DHT22;974;52.400;9.818;2023-05-10T11:31:22;16.40;99.90
1948;DHT22;974;52.400;9.818;2023-05-10T11:33:53;16.30;99.90
1948;DHT22;974;52.400;9.818;2023-05-10T11:36:23;16.40;99.90
1948;DHT22;974;52.400;9.818;2023-05-10T11:38:48;16.70;99.90
1948;DHT22;974;52.400;9.818;2023-05-10T11:41:17;16.70;99.90
1948;DHT22;974;52.400;9.818;2023-05-10T11:43:46;16.70;99.90
1948;DHT22;974;52.400;9.818;2023-05-10T11:46:12;16.50;99.90
1948;DHT22;974;52.400;9.818;2023-05-10T11:48:39;16.90;99.90
1948;DHT22;974;52.400;9.818;2023-05-10T11:51:05;17.10;99.90
1948;DHT22;974;52.400;9.818;2023-05-10T11:53:32;18.00;99.90
1948;DHT22;974;52.400;9.818;2023-05-10T11:56:09;18.70;99.90
1948;DHT22;974;52.400;9.818;2023-05-10T11:58:36;18.40;99.90
1948;DHT22;974;52.400;9.818;2023-05-10T12:01:04;18.10;99.90
1948;DHT22;974;52.400;9.818;2023-05-10T12:03:30;18.00;99.90
1948;DHT22;974;52.400;9.818;2023-05-10T12:05:56;18.10;99.90
1948;DHT22;974;52.400;9.818;2023-05-10T12:08:24;17.90;99.90
1948;DHT22;974;52.400;9.818;2023-05-10T12:10:51;18.10;99.90
1948;DHT22;974;52.400;9.818;2023-05-10T12:13:17;19.30;99.90
1948;DHT22;974;52.400;9.818;2023-05-10T12:15:43;20.70;99.90
1948;DHT22;974;52.400;9.818;2023-05-10T12:18:12;21.40;99.90
1948;DHT22;974;52.400;9.818;2023-05-10T12:20:39;21.50;99.90
1948;DHT22;974;52.400;9.818;2023-05-10T12:23:05;21.60;99.90
1948;DHT22;974;52.400;9.818;2023-05-10T12:25:34;21.90;99.90
1948;DHT22;974;52.400;9.818;2023-05-10T12:28:03;22.20;99.90
1948;DHT22;974;52.400;9.818;2023-05-10T12:30:31;22.40;99.90
1948;DHT22;974;52.400;9.818;2023-05-10T12:33:11;22.20;99.90
1948;DHT22;974;52.400;9.818;2023-05-10T12:35:47;21.30;99.90
1948;DHT22;974;52.400;9.818;2023-05-10T12:41:08;20.80;99.90
1948;DHT22;974;52.400;9.818;2023-05-10T12:43:34;20.20;99.90
1948;DHT22;974;52.400;9.818;2023-05-10T12:46:13;19.80;99.90
1948;DHT22;974;52.400;9.818;2023-05-10T12:48:41;20.00;99.90
1948;DHT22;974;52.400;9.818;2023-05-10T12:51:07;20.00;99.90
1948;DHT22;974;52.400;9.818;2023-05-10T12:53:38;20.10;99.90
1948;DHT22;974;52.400;9.818;2023-05-10T12:56:04;20.00;99.90
1948;DHT22;974;52.400;9.818;2023-05-10T12:58:30;19.60;99.90
1948;DHT22;974;52.400;9.818;2023-05-10T13:00:55;19.50;99.90
1948;DHT22;974;52.400;9.818;2023-05-10T13:03:22;19.50;99.90
1948;DHT22;974;52.400;9.818;2023-05-10T13:05:47;19.50;99.90
1948;DHT22;974;52.400;9.818;2023-05-10T13:08:13;19.40;99.90
1948;DHT22;974;52.400;9.818;2023-05-10T13:10:39;19.10;99.90
1948;DHT22;974;52.400;9.818;2023-05-10T13:13:04;19.00;99.90
1948;DHT22;974;52.400;9.818;2023-05-10T13:15:30;18.90;99.90
1948;DHT22;974;52.400;9.818;2023-05-10T13:17:56;19.10;99.90
1948;DHT22;974;52.400;9.818;2023-05-10T13:20:21;19.20;99.90
1948;DHT22;974;52.400;9.818;2023-05-10T13:22:47;19.30;99.90
1948;DHT22;974;52.400;9.818;2023-05-10T13:25:12;19.30;99.90
1948;DHT22;974;52.400;9.818;2023-05-10T13:27:39;19.20;99.90
1948;DHT22;974;52.400;9.818;2023-05-10T13:30:10;19.10;99.90
1948;DHT22;974;52.400;9.818;2023-05-10T13:32:36;19.10;99.90
1948;DHT22;974;52.400;9.818;2023-05-10T13:35:03;18.90;99.90
1948;DHT22;974;52.400;9.818;2023-05-10T13:37:29;19.00;99.90
1948;DHT22;974;52.400;9.818;2023-05-10T13:39:55;19.10;99.90
1948;DHT22;974;52.400;9.818;2023-05-10T13:42:22;19.20;99.90
1948;DHT22;974;52.400;9.818;2023-05-10T13:44:48;19.30;99.90
1948;DHT22;974;52.400;9.818;2023-05-10T13:47:13;19.40;99.90
1948;DHT22;974;52.400;9.818;2023-05-10T13:49:39;19.40;99.90
1948;DHT22;974;52.400;9.818;2023-05-10T13:52:04;19.30;99.90
1948;DHT22;974;52.400;9.818;2023-05-10T13:54:33;19.20;99.90
1948;DHT22;974;52.400;9.818;2023-05-10T13:56:59;19.20;99.90
1948;DHT22;974;52.400;9.818;2023-05-10T13:59:25;19.10;99.90
1948;DHT22;974;52.400;9.818;2023-05-10T14:01:50;18.90;99.90
1948;DHT22;974;52.400;9.818;2023-05-10T14:04:16;18.50;99.90
1948;DHT22;974;52.400;9.818;2023-05-10T14:06:42;18.20;99.90
1948;DHT22;974;52.400;9.818;2023-05-10T14:09:07;17.90;99.90
1948;DHT22;974;52.400;9.818;2023-05-10T14:11:33;17.70;99.90
1948;DHT22;974;52.400;9.818;2023-05-10T14:13:58;17.40;99.90
1948;DHT22;974;52.400;9.818;2023-05-10T14:16:23;17.10;99.90
1948;DHT22;974;52.400;9.818;2023-05-10T14:18:49;17.00;99.90
1948;DHT22;974;52.400;9.818;2023-05-10T14:21:15;16.80;99.90
1948;DHT22;974;52.400;9.818;2023-05-10T14:23:40;16.70;99.90
1948;DHT22;974;52.400;9.818;2023-05-10T14:26:06;16.70;99.90
1948;DHT22;974;52.400;9.818;2023-05-10T14:28:32;16.70;99.90
1948;DHT22;974;52.400;9.818;2023-05-10T14:30:57;16.50;99.90
1948;DHT22;974;52.400;9.818;2023-05-10T14:33:24;16.50;99.90
1948;DHT22;974;52.400;9.818;2023-05-10T14:35:49;16.40;99.90
1948;DHT22;974;52.400;9.818;2023-05-10T14:38:15;16.40;99.90
1948;DHT22;974;52.400;9.818;2023-05-10T14:40:40;16.30;99.90
1948;DHT22;974;52.400;9.818;2023-05-10T14:43:07;16.20;99.90
1948;DHT22;974;52.400;9.818;2023-05-10T14:45:32;16.20;99.90
1948;DHT22;974;52.400;9.818;2023-05-10T14:47:58;16.10;99.90
1948;DHT22;974;52.400;9.818;2023-05-10T14:50:24;16.10;99.90
1948;DHT22;974;52.400;9.818;2023-05-10T14:52:50;16.00;99.90
1948;DHT22;974;52.400;9.818;2023-05-10T14:55:15;16.00;99.90
1948;DHT22;974;52.400;9.818;2023-05-10T14:57:41;15.90;99.90
1948;DHT22;974;52.400;9.818;2023-05-10T15:00:07;15.90;99.90
1948;DHT22;974;52.400;9.818;2023-05-10T15:02:32;15.90;99.90
1948;DHT22;974;52.400;9.818;2023-05-10T15:04:58;15.90;99.90
1948;DHT22;974;52.400;9.818;2023-05-10T15:07:24;15.90;99.90
1948;DHT22;974;52.400;9.818;2023-05-10T15:09:52;16.00;99.90
1948;DHT22;974;52.400;9.818;2023-05-10T15:12:19;16.00;99.90
1948;DHT22;974;52.400;9.818;2023-05-10T15:14:45;16.20;99.90
1948;DHT22;974;52.400;9.818;2023-05-10T15:17:10;16.20;99.90
1948;DHT22;974;52.400;9.818;2023-05-10T15:19:36;16.30;99.90
1948;DHT22;974;52.400;9.818;2023-05-10T15:22:02;16.30;99.90
1948;DHT22;974;52.400;9.818;2023-05-10T15:24:28;16.50;99.90
1948;DHT22;974;52.400;9.818;2023-05-10T15:26:53;16.60;99.90
1948;DHT22;974;52.400;9.818;2023-05-10T15:29:19;16.60;99.90
1948;DHT22;974;52.400;9.818;2023-05-10T15:31:48;16.60;99.90
1948;DHT22;974;52.400;9.818;2023-05-10T15:34:14;16.50;99.90
1948;DHT22;974;52.400;9.818;2023-05-10T15:36:42;16.50;99.90
1948;DHT22;974;52.400;9.818;2023-05-10T15:39:08;16.60;99.90
1948;DHT22;974;52.400;9.818;2023-05-10T15:41:34;16.60;99.90
1948;DHT22;974;52.400;9.818;2023-05-10T15:44:00;16.60;99.90
1948;DHT22;974;52.400;9.818;2023-05-10T15:46:26;16.60;99.90
1948;DHT22;974;52.400;9.818;2023-05-10T15:48:52;16.60;99.90
1948;DHT22;974;52.400;9.818;2023-05-10T15:51:18;16.60;99.90
1948;DHT22;974;52.400;9.818;2023-05-10T15:53:44;16.60;99.90
1948;DHT22;974;52.400;9.818;2023-05-10T15:56:09;16.60;99.90
1948;DHT22;974;52.400;9.818;2023-05-10T15:58:35;16.50;99.90
1948;DHT22;974;52.400;9.818;2023-05-10T16:01:01;16.50;99.90
1948;DHT22;974;52.400;9.818;2023-05-10T16:03:26;16.50;99.90
1948;DHT22;974;52.400;9.818;2023-05-10T16:05:52;16.40;99.90
1948;DHT22;974;52.400;9.818;2023-05-10T16:08:18;16.40;99.90
1948;DHT22;974;52.400;9.818;2023-05-10T16:10:43;16.30;99.90
1948;DHT22;974;52.400;9.818;2023-05-10T16:13:09;16.20;99.90
1948;DHT22;974;52.400;9.818;2023-05-10T16:15:34;16.10;99.90
1948;DHT22;974;52.400;9.818;2023-05-10T16:18:00;16.00;99.90
1948;DHT22;974;52.400;9.818;2023-05-10T16:20:25;16.00;99.90
1948;DHT22;974;52.400;9.818;2023-05-10T16:22:51;15.90;99.90
1948;DHT22;974;52.400;9.818;2023-05-10T16:25:17;15.90;99.90
1948;DHT22;974;52.400;9.818;2023-05-10T16:27:42;15.90;99.90
1948;DHT22;974;52.400;9.818;2023-05-10T16:30:08;15.80;99.90
1948;DHT22;974;52.400;9.818;2023-05-10T16:35:00;15.60;99.90
1948;DHT22;974;52.400;9.818;2023-05-10T16:37:26;15.50;99.90
1948;DHT22;974;52.400;9.818;2023-05-10T16:39:52;15.50;99.90
1948;DHT22;974;52.400;9.818;2023-05-10T16:42:17;15.40;99.90
1948;DHT22;974;52.400;9.818;2023-05-10T16:44:43;15.40;99.90
1948;DHT22;974;52.400;9.818;2023-05-10T16:47:08;15.30;99.90
1948;DHT22;974;52.400;9.818;2023-05-10T16:49:35;15.30;99.90
1948;DHT22;974;52.400;9.818;2023-05-10T16:52:01;15.20;99.90